sensor_id;sensor_type;location;lat;lon;timestamp;temperature;humidity
68128;SHT30;54931;52.098;21.006;2022-12-24T00:01:04;7.00;86.16
68128;SHT30;54931;52.098;21.006;2022-12-24T00:03:33;7.05;86.15
68128;SHT30;54931;52.098;21.006;2022-12-24T00:06:06;7.09;85.95
68128;SHT30;54931;52.098;21.006;2022-12-24T00:08:45;7.11;85.77
68128;SHT30;54931;52.098;21.006;2022-12-24T00:11:13;7.12;85.61
68128;SHT30;54931;52.098;21.006;2022-12-24T00:13:41;7.09;85.42
68128;SHT30;54931;52.098;21.006;2022-12-24T00:16:09;7.04;85.40
68128;SHT30;54931;52.098;21.006;2022-12-24T00:18:37;7.00;85.40
68128;SHT30;54931;52.098;21.006;2022-12-24T00:21:05;6.99;85.43
68128;SHT30;54931;52.098;21.006;2022-12-24T00:23:33;6.97;85.40
68128;SHT30;54931;52.098;21.006;2022-12-24T00:26:01;6.95;85.48
68128;SHT30;54931;52.098;21.006;2022-12-24T00:28:28;6.93;85.40
68128;SHT30;54931;52.098;21.006;2022-12-24T00:30:56;6.94;85.51
68128;SHT30;54931;52.098;21.006;2022-12-24T00:33:24;6.96;85.52
68128;SHT30;54931;52.098;21.006;2022-12-24T00:35:51;6.99;85.81
68128;SHT30;54931;52.098;21.006;2022-12-24T00:38:20;7.00;85.63
68128;SHT30;54931;52.098;21.006;2022-12-24T00:40:48;7.00;85.48
68128;SHT30;54931;52.098;21.006;2022-12-24T00:43:15;6.99;85.42
68128;SHT30;54931;52.098;21.006;2022-12-24T00:45:43;7.00;85.56
68128;SHT30;54931;52.098;21.006;2022-12-24T00:48:11;7.09;86.19
68128;SHT30;54931;52.098;21.006;2022-12-24T00:50:38;7.14;85.80
68128;SHT30;54931;52.098;21.006;2022-12-24T00:53:06;7.09;85.64
68128;SHT30;54931;52.098;21.006;2022-12-24T00:55:33;7.11;85.82
68128;SHT30;54931;52.098;21.006;2022-12-24T00:58:01;7.14;85.81
68128;SHT30;54931;52.098;21.006;2022-12-24T01:00:28;7.09;85.52
68128;SHT30;54931;52.098;21.006;2022-12-24T01:02:56;7.01;85.36
68128;SHT30;54931;52.098;21.006;2022-12-24T01:05:23;6.93;85.39
68128;SHT30;54931;52.098;21.006;2022-12-24T01:07:51;6.90;85.55
68128;SHT30;54931;52.098;21.006;2022-12-24T01:10:20;6.89;85.45
68128;SHT30;54931;52.098;21.006;2022-12-24T01:12:48;6.85;85.41
68128;SHT30;54931;52.098;21.006;2022-12-24T01:15:15;6.81;85.48
68128;SHT30;54931;52.098;21.006;2022-12-24T01:17:44;6.84;85.88
68128;SHT30;54931;52.098;21.006;2022-12-24T01:20:13;6.82;85.55
68128;SHT30;54931;52.098;21.006;2022-12-24T01:22:43;6.81;85.72
68128;SHT30;54931;52.098;21.006;2022-12-24T01:25:13;6.82;85.82
68128;SHT30;54931;52.098;21.006;2022-12-24T01:27:41;6.81;85.86
68128;SHT30;54931;52.098;21.006;2022-12-24T01:30:10;6.77;85.84
68128;SHT30;54931;52.098;21.006;2022-12-24T01:32:41;6.73;85.81
68128;SHT30;54931;52.098;21.006;2022-12-24T01:35:08;6.72;85.96
68128;SHT30;54931;52.098;21.006;2022-12-24T01:37:36;6.72;85.95
68128;SHT30;54931;52.098;21.006;2022-12-24T01:40:05;6.67;85.73
68128;SHT30;54931;52.098;21.006;2022-12-24T01:42:53;6.56;85.59
68128;SHT30;54931;52.098;21.006;2022-12-24T01:53:57;6.30;86.07
68128;SHT30;54931;52.098;21.006;2022-12-24T01:56:32;6.34;86.23
68128;SHT30;54931;52.098;21.006;2022-12-24T01:59:07;6.41;86.44
68128;SHT30;54931;52.098;21.006;2022-12-24T02:01:40;6.47;86.58
68128;SHT30;54931;52.098;21.006;2022-12-24T02:04:09;6.53;86.61
68128;SHT30;54931;52.098;21.006;2022-12-24T02:07:03;6.59;86.54
68128;SHT30;54931;52.098;21.006;2022-12-24T02:09:31;6.61;86.60
68128;SHT30;54931;52.098;21.006;2022-12-24T02:12:02;6.63;86.40
68128;SHT30;54931;52.098;21.006;2022-12-24T02:14:32;6.62;86.34
68128;SHT30;54931;52.098;21.006;2022-12-24T02:22:42;6.87;85.74
68128;SHT30;54931;52.098;21.006;2022-12-24T02:34:46;7.05;85.44
68128;SHT30;54931;52.098;21.006;2022-12-24T02:37:36;7.07;85.64
68128;SHT30;54931;52.098;21.006;2022-12-24T02:40:11;7.07;85.72
68128;SHT30;54931;52.098;21.006;2022-12-24T02:42:45;7.05;85.65
68128;SHT30;54931;52.098;21.006;2022-12-24T02:45:21;7.06;85.34
68128;SHT30;54931;52.098;21.006;2022-12-24T02:47:58;7.03;84.97
68128;SHT30;54931;52.098;21.006;2022-12-24T02:50:27;6.97;84.96
68128;SHT30;54931;52.098;21.006;2022-12-24T02:52:55;6.97;85.00
68128;SHT30;54931;52.098;21.006;2022-12-24T02:55:38;6.98;85.10
68128;SHT30;54931;52.098;21.006;2022-12-24T03:07:36;6.95;85.22
68128;SHT30;54931;52.098;21.006;2022-12-24T03:13:11;6.80;84.82
68128;SHT30;54931;52.098;21.006;2022-12-24T03:15:43;6.76;84.72
68128;SHT30;54931;52.098;21.006;2022-12-24T03:18:13;6.70;84.70
68128;SHT30;54931;52.098;21.006;2022-12-24T03:20:49;6.68;84.70
68128;SHT30;54931;52.098;21.006;2022-12-24T03:23:32;6.68;84.78
68128;SHT30;54931;52.098;21.006;2022-12-24T03:26:03;6.65;84.90
68128;SHT30;54931;52.098;21.006;2022-12-24T03:28:38;6.59;85.10
68128;SHT30;54931;52.098;21.006;2022-12-24T03:31:07;6.48;85.18
68128;SHT30;54931;52.098;21.006;2022-12-24T03:33:37;6.44;85.31
68128;SHT30;54931;52.098;21.006;2022-12-24T03:36:05;6.46;85.27
68128;SHT30;54931;52.098;21.006;2022-12-24T03:38:34;6.49;85.22
68128;SHT30;54931;52.098;21.006;2022-12-24T03:41:02;6.47;85.11
68128;SHT30;54931;52.098;21.006;2022-12-24T03:43:31;6.49;85.11
68128;SHT30;54931;52.098;21.006;2022-12-24T03:46:06;6.51;85.14
68128;SHT30;54931;52.098;21.006;2022-12-24T03:48:34;6.50;85.07
68128;SHT30;54931;52.098;21.006;2022-12-24T03:51:03;6.49;85.33
68128;SHT30;54931;52.098;21.006;2022-12-24T03:53:31;6.48;85.48
68128;SHT30;54931;52.098;21.006;2022-12-24T03:55:58;6.49;85.42
68128;SHT30;54931;52.098;21.006;2022-12-24T03:58:26;6.54;85.37
68128;SHT30;54931;52.098;21.006;2022-12-24T04:00:53;6.60;85.29
68128;SHT30;54931;52.098;21.006;2022-12-24T04:03:22;6.59;85.05
68128;SHT30;54931;52.098;21.006;2022-12-24T04:06:03;6.56;85.07
68128;SHT30;54931;52.098;21.006;2022-12-24T04:08:37;6.48;85.20
68128;SHT30;54931;52.098;21.006;2022-12-24T04:11:06;6.39;85.34
68128;SHT30;54931;52.098;21.006;2022-12-24T04:13:41;6.40;85.39
68128;SHT30;54931;52.098;21.006;2022-12-24T04:16:10;6.41;85.20
68128;SHT30;54931;52.098;21.006;2022-12-24T04:18:40;6.42;85.17
68128;SHT30;54931;52.098;21.006;2022-12-24T04:21:09;6.45;85.21
68128;SHT30;54931;52.098;21.006;2022-12-24T04:23:38;6.46;85.19
68128;SHT30;54931;52.098;21.006;2022-12-24T04:26:08;6.44;85.13
68128;SHT30;54931;52.098;21.006;2022-12-24T04:28:39;6.42;85.18
68128;SHT30;54931;52.098;21.006;2022-12-24T04:31:12;6.40;85.17
68128;SHT30;54931;52.098;21.006;2022-12-24T04:33:43;6.40;85.25
68128;SHT30;54931;52.098;21.006;2022-12-24T04:36:13;6.38;85.31
68128;SHT30;54931;52.098;21.006;2022-12-24T04:38:44;6.30;85.45
68128;SHT30;54931;52.098;21.006;2022-12-24T04:41:14;6.26;85.47
68128;SHT30;54931;52.098;21.006;2022-12-24T04:43:45;6.26;85.46
68128;SHT30;54931;52.098;21.006;2022-12-24T04:46:15;6.26;85.44
68128;SHT30;54931;52.098;21.006;2022-12-24T04:48:46;6.26;85.43
68128;SHT30;54931;52.098;21.006;2022-12-24T04:51:16;6.26;85.45
68128;SHT30;54931;52.098;21.006;2022-12-24T04:53:46;6.26;85.38
68128;SHT30;54931;52.098;21.006;2022-12-24T04:56:15;6.28;85.41
68128;SHT30;54931;52.098;21.006;2022-12-24T04:58:45;6.25;85.36
68128;SHT30;54931;52.098;21.006;2022-12-24T05:01:15;6.18;85.48
68128;SHT30;54931;52.098;21.006;2022-12-24T05:03:46;6.12;85.55
68128;SHT30;54931;52.098;21.006;2022-12-24T05:06:16;6.08;85.55
68128;SHT30;54931;52.098;21.006;2022-12-24T05:08:47;6.09;85.54
68128;SHT30;54931;52.098;21.006;2022-12-24T05:11:15;6.12;85.61
68128;SHT30;54931;52.098;21.006;2022-12-24T05:13:43;6.11;85.48
68128;SHT30;54931;52.098;21.006;2022-12-24T05:16:13;6.07;85.49
68128;SHT30;54931;52.098;21.006;2022-12-24T05:18:44;6.06;85.54
68128;SHT30;54931;52.098;21.006;2022-12-24T05:21:16;6.05;85.65
68128;SHT30;54931;52.098;21.006;2022-12-24T05:23:50;6.06;85.65
68128;SHT30;54931;52.098;21.006;2022-12-24T05:26:43;6.12;85.79
68128;SHT30;54931;52.098;21.006;2022-12-24T05:29:15;6.16;85.72
68128;SHT30;54931;52.098;21.006;2022-12-24T05:31:43;6.18;85.62
68128;SHT30;54931;52.098;21.006;2022-12-24T05:34:12;6.18;85.65
68128;SHT30;54931;52.098;21.006;2022-12-24T05:36:42;6.19;85.56
68128;SHT30;54931;52.098;21.006;2022-12-24T05:39:15;6.17;85.48
68128;SHT30;54931;52.098;21.006;2022-12-24T05:41:44;6.15;85.51
68128;SHT30;54931;52.098;21.006;2022-12-24T05:44:13;6.10;85.48
68128;SHT30;54931;52.098;21.006;2022-12-24T05:46:42;6.09;85.56
68128;SHT30;54931;52.098;21.006;2022-12-24T05:49:10;6.08;85.55
68128;SHT30;54931;52.098;21.006;2022-12-24T05:51:38;6.06;85.66
68128;SHT30;54931;52.098;21.006;2022-12-24T05:54:06;6.05;85.66
68128;SHT30;54931;52.098;21.006;2022-12-24T05:56:33;6.05;85.73
68128;SHT30;54931;52.098;21.006;2022-12-24T05:59:02;6.04;85.73
68128;SHT30;54931;52.098;21.006;2022-12-24T06:01:30;6.01;85.72
68128;SHT30;54931;52.098;21.006;2022-12-24T06:03:58;5.96;85.77
68128;SHT30;54931;52.098;21.006;2022-12-24T06:06:26;5.92;85.86
68128;SHT30;54931;52.098;21.006;2022-12-24T06:08:54;5.88;85.94
68128;SHT30;54931;52.098;21.006;2022-12-24T06:11:23;5.86;85.99
68128;SHT30;54931;52.098;21.006;2022-12-24T06:13:53;5.85;85.99
68128;SHT30;54931;52.098;21.006;2022-12-24T06:16:22;5.86;86.01
68128;SHT30;54931;52.098;21.006;2022-12-24T06:18:51;5.89;85.99
68128;SHT30;54931;52.098;21.006;2022-12-24T06:21:20;5.91;85.99
68128;SHT30;54931;52.098;21.006;2022-12-24T06:23:48;5.92;85.99
68128;SHT30;54931;52.098;21.006;2022-12-24T06:26:19;5.89;86.00
68128;SHT30;54931;52.098;21.006;2022-12-24T06:28:48;5.89;86.02
68128;SHT30;54931;52.098;21.006;2022-12-24T06:31:19;5.87;86.03
68128;SHT30;54931;52.098;21.006;2022-12-24T06:33:49;5.88;86.15
68128;SHT30;54931;52.098;21.006;2022-12-24T06:36:18;5.91;86.11
68128;SHT30;54931;52.098;21.006;2022-12-24T06:38:52;5.93;86.09
68128;SHT30;54931;52.098;21.006;2022-12-24T06:41:21;5.99;86.04
68128;SHT30;54931;52.098;21.006;2022-12-24T06:43:50;6.08;85.92
68128;SHT30;54931;52.098;21.006;2022-12-24T06:46:20;6.13;85.81
68128;SHT30;54931;52.098;21.006;2022-12-24T06:48:48;6.10;85.87
68128;SHT30;54931;52.098;21.006;2022-12-24T06:51:16;6.04;85.95
68128;SHT30;54931;52.098;21.006;2022-12-24T06:53:48;5.97;85.99
68128;SHT30;54931;52.098;21.006;2022-12-24T06:56:19;5.93;86.00
68128;SHT30;54931;52.098;21.006;2022-12-24T06:58:47;5.94;86.06
68128;SHT30;54931;52.098;21.006;2022-12-24T07:01:15;5.93;86.02
68128;SHT30;54931;52.098;21.006;2022-12-24T07:03:45;5.97;86.03
68128;SHT30;54931;52.098;21.006;2022-12-24T07:06:22;5.95;86.00
68128;SHT30;54931;52.098;21.006;2022-12-24T07:08:53;5.91;86.06
68128;SHT30;54931;52.098;21.006;2022-12-24T07:11:22;5.89;86.14
68128;SHT30;54931;52.098;21.006;2022-12-24T07:13:51;5.84;86.25
68128;SHT30;54931;52.098;21.006;2022-12-24T07:16:19;5.80;86.35
68128;SHT30;54931;52.098;21.006;2022-12-24T07:18:47;5.77;86.45
68128;SHT30;54931;52.098;21.006;2022-12-24T07:21:15;5.73;86.53
68128;SHT30;54931;52.098;21.006;2022-12-24T07:23:43;5.71;86.60
68128;SHT30;54931;52.098;21.006;2022-12-24T07:26:10;5.68;86.65
68128;SHT30;54931;52.098;21.006;2022-12-24T07:28:39;5.65;86.75
68128;SHT30;54931;52.098;21.006;2022-12-24T07:31:06;5.66;86.80
68128;SHT30;54931;52.098;21.006;2022-12-24T07:33:34;5.66;86.80
68128;SHT30;54931;52.098;21.006;2022-12-24T07:36:03;5.67;86.81
68128;SHT30;54931;52.098;21.006;2022-12-24T07:38:34;5.68;86.84
68128;SHT30;54931;52.098;21.006;2022-12-24T07:41:02;5.69;86.81
68128;SHT30;54931;52.098;21.006;2022-12-24T07:43:31;5.69;86.86
68128;SHT30;54931;52.098;21.006;2022-12-24T07:46:00;5.68;86.86
68128;SHT30;54931;52.098;21.006;2022-12-24T07:48:28;5.69;86.82
68128;SHT30;54931;52.098;21.006;2022-12-24T07:50:58;5.69;86.87
68128;SHT30;54931;52.098;21.006;2022-12-24T07:53:26;5.71;86.90
68128;SHT30;54931;52.098;21.006;2022-12-24T07:55:57;5.71;86.88
68128;SHT30;54931;52.098;21.006;2022-12-24T07:58:25;5.70;86.88
68128;SHT30;54931;52.098;21.006;2022-12-24T08:00:57;5.69;86.89
68128;SHT30;54931;52.098;21.006;2022-12-24T08:03:26;5.70;86.94
68128;SHT30;54931;52.098;21.006;2022-12-24T08:05:54;5.68;86.93
68128;SHT30;54931;52.098;21.006;2022-12-24T08:08:21;5.66;87.00
68128;SHT30;54931;52.098;21.006;2022-12-24T08:10:50;5.65;87.03
68128;SHT30;54931;52.098;21.006;2022-12-24T08:13:18;5.66;87.09
68128;SHT30;54931;52.098;21.006;2022-12-24T08:15:46;5.66;87.10
68128;SHT30;54931;52.098;21.006;2022-12-24T08:18:14;5.68;87.09
68128;SHT30;54931;52.098;21.006;2022-12-24T08:20:42;5.69;87.11
68128;SHT30;54931;52.098;21.006;2022-12-24T08:23:09;5.71;87.11
68128;SHT30;54931;52.098;21.006;2022-12-24T08:25:40;5.74;87.12
68128;SHT30;54931;52.098;21.006;2022-12-24T08:28:10;5.74;87.10
68128;SHT30;54931;52.098;21.006;2022-12-24T08:30:40;5.74;87.10
68128;SHT30;54931;52.098;21.006;2022-12-24T08:33:09;5.75;87.19
68128;SHT30;54931;52.098;21.006;2022-12-24T08:35:38;5.76;87.12
68128;SHT30;54931;52.098;21.006;2022-12-24T08:38:06;5.77;87.10
68128;SHT30;54931;52.098;21.006;2022-12-24T08:40:34;5.79;87.03
68128;SHT30;54931;52.098;21.006;2022-12-24T08:43:02;5.79;86.98
68128;SHT30;54931;52.098;21.006;2022-12-24T08:45:30;5.78;86.94
68128;SHT30;54931;52.098;21.006;2022-12-24T08:47:58;5.80;86.99
68128;SHT30;54931;52.098;21.006;2022-12-24T08:50:26;5.83;86.90
68128;SHT30;54931;52.098;21.006;2022-12-24T08:52:54;5.87;86.87
68128;SHT30;54931;52.098;21.006;2022-12-24T08:55:22;5.95;86.80
68128;SHT30;54931;52.098;21.006;2022-12-24T08:57:50;6.01;86.58
68128;SHT30;54931;52.098;21.006;2022-12-24T09:00:19;6.04;86.50
68128;SHT30;54931;52.098;21.006;2022-12-24T09:02:47;6.09;86.50
68128;SHT30;54931;52.098;21.006;2022-12-24T09:05:15;6.14;86.50
68128;SHT30;54931;52.098;21.006;2022-12-24T09:07:43;6.18;86.39
68128;SHT30;54931;52.098;21.006;2022-12-24T09:10:11;6.18;86.27
68128;SHT30;54931;52.098;21.006;2022-12-24T09:12:39;6.17;86.23
68128;SHT30;54931;52.098;21.006;2022-12-24T09:15:07;6.16;86.17
68128;SHT30;54931;52.098;21.006;2022-12-24T09:17:36;6.16;86.25
68128;SHT30;54931;52.098;21.006;2022-12-24T09:20:04;6.19;86.28
68128;SHT30;54931;52.098;21.006;2022-12-24T09:22:34;6.22;86.17
68128;SHT30;54931;52.098;21.006;2022-12-24T09:25:04;6.25;86.21
68128;SHT30;54931;52.098;21.006;2022-12-24T09:27:33;6.27;86.03
68128;SHT30;54931;52.098;21.006;2022-12-24T09:30:01;6.27;86.10
68128;SHT30;54931;52.098;21.006;2022-12-24T09:32:30;6.26;86.08
68128;SHT30;54931;52.098;21.006;2022-12-24T09:34:58;6.25;86.11
68128;SHT30;54931;52.098;21.006;2022-12-24T09:37:27;6.24;86.21
68128;SHT30;54931;52.098;21.006;2022-12-24T09:39:55;6.26;86.15
68128;SHT30;54931;52.098;21.006;2022-12-24T09:45:22;6.33;85.97
68128;SHT30;54931;52.098;21.006;2022-12-24T09:50:56;6.32;85.77
68128;SHT30;54931;52.098;21.006;2022-12-24T09:56:39;6.29;85.99
68128;SHT30;54931;52.098;21.006;2022-12-24T09:59:13;6.30;86.01
68128;SHT30;54931;52.098;21.006;2022-12-24T10:02:08;6.28;85.98
68128;SHT30;54931;52.098;21.006;2022-12-24T10:04:41;6.27;85.80
68128;SHT30;54931;52.098;21.006;2022-12-24T10:07:21;6.26;85.83
68128;SHT30;54931;52.098;21.006;2022-12-24T10:10:21;6.31;85.98
68128;SHT30;54931;52.098;21.006;2022-12-24T10:15:37;6.35;85.73
68128;SHT30;54931;52.098;21.006;2022-12-24T10:23:57;6.43;85.90
68128;SHT30;54931;52.098;21.006;2022-12-24T10:26:42;6.45;85.81
68128;SHT30;54931;52.098;21.006;2022-12-24T10:29:20;6.46;85.83
68128;SHT30;54931;52.098;21.006;2022-12-24T10:31:57;6.47;85.84
68128;SHT30;54931;52.098;21.006;2022-12-24T10:34:44;6.48;85.72
68128;SHT30;54931;52.098;21.006;2022-12-24T10:37:22;6.48;85.75
68128;SHT30;54931;52.098;21.006;2022-12-24T10:39:54;6.50;85.71
68128;SHT30;54931;52.098;21.006;2022-12-24T10:42:26;6.51;85.70
68128;SHT30;54931;52.098;21.006;2022-12-24T10:45:15;6.51;85.74
68128;SHT30;54931;52.098;21.006;2022-12-24T10:47:48;6.52;85.73
68128;SHT30;54931;52.098;21.006;2022-12-24T10:50:30;6.53;85.73
68128;SHT30;54931;52.098;21.006;2022-12-24T10:53:12;6.53;85.62
68128;SHT30;54931;52.098;21.006;2022-12-24T10:55:49;6.53;85.67
68128;SHT30;54931;52.098;21.006;2022-12-24T10:58:26;6.49;85.60
68128;SHT30;54931;52.098;21.006;2022-12-24T11:00:54;6.44;85.56
68128;SHT30;54931;52.098;21.006;2022-12-24T11:03:32;6.43;85.60
68128;SHT30;54931;52.098;21.006;2022-12-24T11:06:12;6.41;85.64
68128;SHT30;54931;52.098;21.006;2022-12-24T11:08:47;6.42;85.63
68128;SHT30;54931;52.098;21.006;2022-12-24T11:11:16;6.43;85.70
68128;SHT30;54931;52.098;21.006;2022-12-24T11:16:30;6.46;85.76
68128;SHT30;54931;52.098;21.006;2022-12-24T11:19:04;6.48;85.69
68128;SHT30;54931;52.098;21.006;2022-12-24T11:21:43;6.50;85.73
68128;SHT30;54931;52.098;21.006;2022-12-24T11:26:39;6.44;85.49
68128;SHT30;54931;52.098;21.006;2022-12-24T11:29:24;6.45;85.69
68128;SHT30;54931;52.098;21.006;2022-12-24T11:34:47;6.52;85.73
68128;SHT30;54931;52.098;21.006;2022-12-24T11:37:17;6.54;85.58
68128;SHT30;54931;52.098;21.006;2022-12-24T11:39:53;6.50;85.36
68128;SHT30;54931;52.098;21.006;2022-12-24T11:42:30;6.48;85.53
68128;SHT30;54931;52.098;21.006;2022-12-24T11:45:00;6.47;85.60
68128;SHT30;54931;52.098;21.006;2022-12-24T11:47:43;6.46;85.50
68128;SHT30;54931;52.098;21.006;2022-12-24T12:00:49;6.34;85.34
68128;SHT30;54931;52.098;21.006;2022-12-24T12:03:28;6.36;85.55
68128;SHT30;54931;52.098;21.006;2022-12-24T12:06:09;6.39;85.68
68128;SHT30;54931;52.098;21.006;2022-12-24T12:09:04;6.40;85.52
68128;SHT30;54931;52.098;21.006;2022-12-24T12:11:39;6.36;85.55
68128;SHT30;54931;52.098;21.006;2022-12-24T12:14:13;6.38;85.54
68128;SHT30;54931;52.098;21.006;2022-12-24T12:16:57;6.41;85.44
68128;SHT30;54931;52.098;21.006;2022-12-24T12:19:56;6.42;85.46
68128;SHT30;54931;52.098;21.006;2022-12-24T12:22:59;6.50;85.41
68128;SHT30;54931;52.098;21.006;2022-12-24T12:25:46;6.51;85.20
68128;SHT30;54931;52.098;21.006;2022-12-24T12:36:45;6.45;85.16
68128;SHT30;54931;52.098;21.006;2022-12-24T12:39:17;6.43;85.19
68128;SHT30;54931;52.098;21.006;2022-12-24T12:41:48;6.43;85.24
68128;SHT30;54931;52.098;21.006;2022-12-24T12:44:27;6.39;85.19
68128;SHT30;54931;52.098;21.006;2022-12-24T12:47:32;6.39;85.31
68128;SHT30;54931;52.098;21.006;2022-12-24T12:56:29;6.45;85.26
68128;SHT30;54931;52.098;21.006;2022-12-24T13:05:31;6.63;85.23
68128;SHT30;54931;52.098;21.006;2022-12-24T13:21:00;6.53;85.21
68128;SHT30;54931;52.098;21.006;2022-12-24T13:23:28;6.53;85.24
68128;SHT30;54931;52.098;21.006;2022-12-24T13:25:56;6.52;85.14
68128;SHT30;54931;52.098;21.006;2022-12-24T13:30:53;6.53;85.10
68128;SHT30;54931;52.098;21.006;2022-12-24T13:36:14;6.47;85.19
68128;SHT30;54931;52.098;21.006;2022-12-24T13:46:57;6.41;85.10
68128;SHT30;54931;52.098;21.006;2022-12-24T13:49:48;6.36;85.06
68128;SHT30;54931;52.098;21.006;2022-12-24T13:52:28;6.30;85.05
68128;SHT30;54931;52.098;21.006;2022-12-24T14:02:50;6.32;85.12
68128;SHT30;54931;52.098;21.006;2022-12-24T14:08:11;6.32;85.15
68128;SHT30;54931;52.098;21.006;2022-12-24T14:11:08;6.32;85.09
68128;SHT30;54931;52.098;21.006;2022-12-24T14:16:16;6.38;85.03
68128;SHT30;54931;52.098;21.006;2022-12-24T14:18:57;6.39;85.12
68128;SHT30;54931;52.098;21.006;2022-12-24T14:21:36;6.39;85.03
68128;SHT30;54931;52.098;21.006;2022-12-24T14:24:20;6.35;84.94
68128;SHT30;54931;52.098;21.006;2022-12-24T14:26:55;6.36;85.07
68128;SHT30;54931;52.098;21.006;2022-12-24T14:29:32;6.36;84.99
68128;SHT30;54931;52.098;21.006;2022-12-24T14:32:18;6.32;84.99
68128;SHT30;54931;52.098;21.006;2022-12-24T14:34:45;6.33;85.05
68128;SHT30;54931;52.098;21.006;2022-12-24T14:37:13;6.32;84.93
68128;SHT30;54931;52.098;21.006;2022-12-24T14:39:43;6.29;84.86
68128;SHT30;54931;52.098;21.006;2022-12-24T14:45:24;6.15;84.97
68128;SHT30;54931;52.098;21.006;2022-12-24T14:51:57;6.04;85.15
68128;SHT30;54931;52.098;21.006;2022-12-24T14:54:57;5.98;85.21
68128;SHT30;54931;52.098;21.006;2022-12-24T14:57:25;5.93;85.30
68128;SHT30;54931;52.098;21.006;2022-12-24T14:59:54;5.91;85.34
68128;SHT30;54931;52.098;21.006;2022-12-24T15:05:25;5.84;85.41
68128;SHT30;54931;52.098;21.006;2022-12-24T15:07:57;5.80;85.49
68128;SHT30;54931;52.098;21.006;2022-12-24T15:10:41;5.76;85.54
68128;SHT30;54931;52.098;21.006;2022-12-24T15:16:00;5.69;85.70
68128;SHT30;54931;52.098;21.006;2022-12-24T15:18:31;5.68;85.75
68128;SHT30;54931;52.098;21.006;2022-12-24T15:21:04;5.67;85.80
68128;SHT30;54931;52.098;21.006;2022-12-24T15:23:43;5.65;85.84
68128;SHT30;54931;52.098;21.006;2022-12-24T15:26:17;5.64;85.82
68128;SHT30;54931;52.098;21.006;2022-12-24T15:28:45;5.63;85.88
68128;SHT30;54931;52.098;21.006;2022-12-24T15:31:14;5.63;85.88
68128;SHT30;54931;52.098;21.006;2022-12-24T15:33:46;5.63;85.92
68128;SHT30;54931;52.098;21.006;2022-12-24T15:36:27;5.62;85.91
68128;SHT30;54931;52.098;21.006;2022-12-24T15:39:03;5.61;86.01
68128;SHT30;54931;52.098;21.006;2022-12-24T15:41:36;5.59;86.01
68128;SHT30;54931;52.098;21.006;2022-12-24T15:44:32;5.59;86.09
68128;SHT30;54931;52.098;21.006;2022-12-24T15:47:04;5.59;86.02
68128;SHT30;54931;52.098;21.006;2022-12-24T15:49:42;5.59;85.99
68128;SHT30;54931;52.098;21.006;2022-12-24T15:52:19;5.59;85.96
68128;SHT30;54931;52.098;21.006;2022-12-24T15:54:53;5.58;86.00
68128;SHT30;54931;52.098;21.006;2022-12-24T15:57:25;5.56;85.91
68128;SHT30;54931;52.098;21.006;2022-12-24T15:59:59;5.53;85.90
68128;SHT30;54931;52.098;21.006;2022-12-24T16:02:39;5.48;85.87
68128;SHT30;54931;52.098;21.006;2022-12-24T16:05:27;5.44;85.93
68128;SHT30;54931;52.098;21.006;2022-12-24T16:08:05;5.40;85.91
68128;SHT30;54931;52.098;21.006;2022-12-24T16:10:40;5.37;85.98
68128;SHT30;54931;52.098;21.006;2022-12-24T16:13:34;5.32;85.98
68128;SHT30;54931;52.098;21.006;2022-12-24T16:16:41;5.28;86.00
68128;SHT30;54931;52.098;21.006;2022-12-24T16:21:57;5.22;85.96
68128;SHT30;54931;52.098;21.006;2022-12-24T16:24:50;5.18;85.94
68128;SHT30;54931;52.098;21.006;2022-12-24T16:27:18;5.14;86.03
68128;SHT30;54931;52.098;21.006;2022-12-24T16:29:45;5.11;86.01
68128;SHT30;54931;52.098;21.006;2022-12-24T16:32:30;5.12;86.00
68128;SHT30;54931;52.098;21.006;2022-12-24T16:35:02;5.08;86.03
68128;SHT30;54931;52.098;21.006;2022-12-24T16:37:31;5.06;86.10
68128;SHT30;54931;52.098;21.006;2022-12-24T16:40:00;5.05;86.11
68128;SHT30;54931;52.098;21.006;2022-12-24T16:42:28;5.03;86.20
68128;SHT30;54931;52.098;21.006;2022-12-24T16:45:15;5.00;86.25
68128;SHT30;54931;52.098;21.006;2022-12-24T16:47:42;4.99;86.30
68128;SHT30;54931;52.098;21.006;2022-12-24T16:50:13;5.03;86.24
68128;SHT30;54931;52.098;21.006;2022-12-24T16:52:43;5.06;86.20
68128;SHT30;54931;52.098;21.006;2022-12-24T16:55:12;5.10;86.11
68128;SHT30;54931;52.098;21.006;2022-12-24T16:57:41;5.13;86.18
68128;SHT30;54931;52.098;21.006;2022-12-24T17:00:14;5.14;86.06
68128;SHT30;54931;52.098;21.006;2022-12-24T17:02:46;5.17;86.00
68128;SHT30;54931;52.098;21.006;2022-12-24T17:05:16;5.20;86.06
68128;SHT30;54931;52.098;21.006;2022-12-24T17:07:44;5.21;86.09
68128;SHT30;54931;52.098;21.006;2022-12-24T17:10:12;5.24;86.10
68128;SHT30;54931;52.098;21.006;2022-12-24T17:12:40;5.26;86.00
68128;SHT30;54931;52.098;21.006;2022-12-24T17:15:10;5.31;85.90
68128;SHT30;54931;52.098;21.006;2022-12-24T17:17:38;5.35;85.73
68128;SHT30;54931;52.098;21.006;2022-12-24T17:20:06;5.34;85.57
68128;SHT30;54931;52.098;21.006;2022-12-24T17:22:34;5.36;85.60
68128;SHT30;54931;52.098;21.006;2022-12-24T17:25:03;5.37;85.64
68128;SHT30;54931;52.098;21.006;2022-12-24T17:27:32;5.40;85.68
68128;SHT30;54931;52.098;21.006;2022-12-24T17:30:00;5.45;85.80
68128;SHT30;54931;52.098;21.006;2022-12-24T17:32:28;5.48;85.79
68128;SHT30;54931;52.098;21.006;2022-12-24T17:34:57;5.46;85.61
68128;SHT30;54931;52.098;21.006;2022-12-24T17:37:25;5.42;85.61
68128;SHT30;54931;52.098;21.006;2022-12-24T17:39:53;5.39;85.60
68128;SHT30;54931;52.098;21.006;2022-12-24T17:42:22;5.37;85.56
68128;SHT30;54931;52.098;21.006;2022-12-24T17:44:49;5.36;85.56
68128;SHT30;54931;52.098;21.006;2022-12-24T17:47:18;5.36;85.40
68128;SHT30;54931;52.098;21.006;2022-12-24T17:49:45;5.34;85.49
68128;SHT30;54931;52.098;21.006;2022-12-24T17:52:13;5.32;85.55
68128;SHT30;54931;52.098;21.006;2022-12-24T17:54:41;5.31;85.58
68128;SHT30;54931;52.098;21.006;2022-12-24T17:57:08;5.33;85.57
68128;SHT30;54931;52.098;21.006;2022-12-24T17:59:36;5.37;85.56
68128;SHT30;54931;52.098;21.006;2022-12-24T18:02:04;5.43;85.50
68128;SHT30;54931;52.098;21.006;2022-12-24T18:04:31;5.47;85.58
68128;SHT30;54931;52.098;21.006;2022-12-24T18:06:59;5.50;85.47
68128;SHT30;54931;52.098;21.006;2022-12-24T18:09:28;5.49;85.48
68128;SHT30;54931;52.098;21.006;2022-12-24T18:11:56;5.45;85.52
68128;SHT30;54931;52.098;21.006;2022-12-24T18:14:23;5.44;85.63
68128;SHT30;54931;52.098;21.006;2022-12-24T18:16:51;5.39;85.51
68128;SHT30;54931;52.098;21.006;2022-12-24T18:19:18;5.34;85.61
68128;SHT30;54931;52.098;21.006;2022-12-24T18:21:46;5.35;85.64
68128;SHT30;54931;52.098;21.006;2022-12-24T18:24:14;5.36;85.53
68128;SHT30;54931;52.098;21.006;2022-12-24T18:26:42;5.39;85.50
68128;SHT30;54931;52.098;21.006;2022-12-24T18:29:12;5.42;85.52